Time;durP1;ratioP1;P1;durP2;ratioP2;P2;SDS_P1;SDS_P2;PMS_P1;PMS_P2;Temp;Humidity;BMP_temperature;BMP_pressure;BME280_temperature;BME280_humidity;BME280_pressure;Samples;Min_cycle;Max_cycle;Signal;HPM_P1;HPM_P2
2023/01/04 00:01:01;;;;;;;96.90;41.63;;;;;;;-141.97;87.76;47778.56;5034424;28;20499;-84
2023/01/04 00:03:27;;;;;;;113.90;43.23;;;;;;;-141.97;87.90;47772.78;5034488;28;20200;-83
2023/01/04 00:05:52;;;;;;;119.20;45.87;;;;;;;-141.97;87.76;47715.13;5016570;28;20408;-82
2023/01/04 00:08:18;;;;;;;108.03;42.57;;;;;;;-141.97;87.66;47701.69;5034825;28;20176;-82
2023/01/04 00:10:43;;;;;;;114.13;41.97;;;;;;;-141.97;87.64;47830.47;5034728;28;20165;-82
2023/01/04 00:13:09;;;;;;;111.20;40.63;;;;;;;-141.97;87.57;47776.63;5034499;28;20162;-83
2023/01/04 00:15:34;;;;;;;107.47;40.57;;;;;;;-141.97;87.69;47799.72;5034339;28;20178;-83
2023/01/04 00:17:59;;;;;;;113.33;40.07;;;;;;;-141.97;87.68;47807.41;5034167;28;20693;-83
2023/01/04 00:20:25;;;;;;;106.97;40.57;;;;;;;-141.97;87.61;47697.84;5034050;28;20682;-83
2023/01/04 00:22:50;;;;;;;115.97;40.73;;;;;;;-141.97;87.55;47857.38;5034233;28;20160;-83
2023/01/04 00:25:16;;;;;;;100.23;39.47;;;;;;;-141.97;87.24;47788.19;5034200;28;20169;-82
2023/01/04 00:27:41;;;;;;;105.37;39.37;;;;;;;-141.97;87.80;47761.25;5034492;28;20162;-83
2023/01/04 00:30:07;;;;;;;100.40;40.83;;;;;;;-141.97;87.26;47780.47;5034536;28;20169;-83
2023/01/04 00:32:32;;;;;;;97.37;40.90;;;;;;;-141.97;87.62;47718.97;5033727;28;20180;-83
2023/01/04 00:34:58;;;;;;;104.60;39.37;;;;;;;-141.97;87.90;47834.31;5032692;28;20896;-83
2023/01/04 00:37:23;;;;;;;100.73;40.57;;;;;;;-141.97;88.33;47705.53;5033878;28;20168;-82
2023/01/04 00:39:48;;;;;;;93.30;39.73;;;;;;;-141.97;88.86;47713.22;5033556;28;20229;-83
2023/01/04 00:42:14;;;;;;;96.97;38.93;;;;;;;-141.97;88.47;47730.50;5035089;28;20170;-82
2023/01/04 00:44:39;;;;;;;96.13;39.87;;;;;;;-141.97;88.65;47759.34;5036604;28;20166;-83
2023/01/04 00:47:05;;;;;;;96.17;40.07;;;;;;;-141.97;88.58;47847.75;5034651;28;20193;-83
2023/01/04 00:49:30;;;;;;;95.40;40.80;;;;;;;-141.97;88.44;47786.25;5033996;28;20262;-82
2023/01/04 00:51:56;;;;;;;97.37;39.90;;;;;;;-141.97;88.68;47776.63;5033775;28;20196;-82
2023/01/04 00:54:22;;;;;;;101.93;41.00;;;;;;;-141.97;88.95;47817.00;5033391;28;20161;-82
2023/01/04 00:56:48;;;;;;;96.30;40.53;;;;;;;-141.97;89.27;47830.47;5033681;28;20432;-83
2023/01/04 00:59:16;;;;;;;99.17;40.57;;;;;;;-141.97;89.89;47788.19;5033725;28;20194;-84
2023/01/04 01:01:42;;;;;;;92.73;40.53;;;;;;;-141.97;90.53;47809.31;5015799;28;20995;-83
2023/01/04 01:04:11;;;;;;;97.60;41.10;;;;;;;-141.97;90.37;47813.16;5033346;28;20411;-83
2023/01/04 01:06:36;;;;;;;103.43;41.20;;;;;;;-141.97;90.10;47745.88;5015305;28;20415;-84
2023/01/04 01:09:03;;;;;;;97.53;40.23;;;;;;;-141.97;89.65;47772.78;5033201;28;20413;-84
2023/01/04 01:11:29;;;;;;;95.00;40.70;;;;;;;-141.97;89.62;47792.03;5033283;28;20249;-84
2023/01/04 01:13:56;;;;;;;100.10;40.00;;;;;;;-141.97;89.05;47761.25;5032957;28;20411;-83
2023/01/04 01:16:23;;;;;;;96.67;40.30;;;;;;;-141.97;88.55;47776.63;5033114;28;20396;-83
2023/01/04 01:18:49;;;;;;;91.33;39.03;;;;;;;-141.97;88.66;47724.75;5033058;28;20919;-84
2023/01/04 01:21:18;;;;;;;100.87;42.23;;;;;;;-141.97;88.33;47728.59;5033379;28;20448;-83
2023/01/04 01:23:44;;;;;;;107.23;43.33;;;;;;;-141.97;87.86;47803.56;5015224;28;20414;-83
2023/01/04 01:26:12;;;;;;;107.97;41.83;;;;;;;-141.97;87.75;47761.25;5032847;28;20436;-83
2023/01/04 01:28:38;;;;;;;103.03;40.60;;;;;;;-141.97;87.68;47778.56;5032636;28;20168;-83
2023/01/04 01:31:06;;;;;;;107.17;41.90;;;;;;;-141.97;87.67;47795.88;5032543;28;20492;-84
2023/01/04 01:33:31;;;;;;;109.67;42.63;;;;;;;-141.97;87.97;47749.72;5035031;28;20493;-83
2023/01/04 01:36:01;;;;;;;114.30;42.37;;;;;;;-141.97;87.41;47786.25;5038158;28;20408;-83
2023/01/04 01:38:26;;;;;;;102.73;41.70;;;;;;;-141.97;87.63;47690.16;5035900;28;20218;-83
2023/01/04 01:40:52;;;;;;;103.70;41.97;;;;;;;-141.97;87.55;47834.31;5033144;28;20833;-83
2023/01/04 01:43:19;;;;;;;95.47;41.03;;;;;;;-141.97;87.88;47782.41;5033389;28;20176;-83
2023/01/04 01:45:48;;;;;;;97.70;41.50;;;;;;;-141.97;87.90;47743.97;5032961;28;20178;-84
2023/01/04 01:48:28;;;;;;;115.07;43.43;;;;;;;-141.97;87.66;47803.56;5032677;28;20408;-83
2023/01/04 01:50:58;;;;;;;105.80;44.63;;;;;;;-141.97;86.87;47811.25;5032916;28;20405;-83
2023/01/04 01:53:27;;;;;;;109.53;44.67;;;;;;;-141.97;86.49;47776.63;5032661;28;20972;-83
2023/01/04 01:55:54;;;;;;;107.60;45.23;;;;;;;-141.97;86.83;47838.16;5032479;28;20466;-83
2023/01/04 01:58:37;;;;;;;109.17;44.60;;;;;;;-141.97;87.53;47813.16;5032382;28;20487;-84
2023/01/04 02:01:03;;;;;;;97.93;41.37;;;;;;;-141.97;87.58;47801.63;5032255;28;20605;-83
2023/01/04 02:03:36;;;;;;;106.33;43.83;;;;;;;-141.97;87.37;47799.72;5032271;28;21000;-84
2023/01/04 02:06:05;;;;;;;94.63;40.90;;;;;;;-141.97;87.85;47757.41;5032453;28;20163;-84
2023/01/04 02:08:31;;;;;;;108.43;43.07;;;;;;;-141.97;88.09;47788.19;5031621;28;20405;-83
2023/01/04 02:10:57;;;;;;;99.00;42.83;;;;;;;-141.97;88.51;47811.25;5032182;28;20409;-84
2023/01/04 02:14:25;;;;;;;97.73;42.93;;;;;;;-141.97;88.04;47757.41;5032668;28;20745;-84
2023/01/04 02:16:41;;;;;;;106.50;42.07;;;;;;;-141.97;88.27;47799.72;5032258;28;20413;-84
2023/01/04 02:19:21;;;;;;;97.10;42.30;;;;;;;-141.97;87.56;47811.25;5031967;28;20405;-84
2023/01/04 02:22:06;;;;;;;108.10;41.67;;;;;;;-141.97;87.35;47801.63;5031633;28;20452;-83
2023/01/04 02:24:44;;;;;;;109.07;42.67;;;;;;;-141.97;88.13;47776.63;5031707;28;20905;-83
2023/01/04 02:27:21;;;;;;;99.73;41.10;;;;;;;-141.97;89.09;47795.88;5031745;28;20485;-83
2023/01/04 02:29:47;;;;;;;98.07;41.17;;;;;;;-141.97;89.67;47772.78;5031694;28;20420;-84
2023/01/04 02:32:25;;;;;;;109.87;42.80;;;;;;;-141.97;90.20;47770.88;5031808;28;20471;-84
2023/01/04 02:34:56;;;;;;;100.73;40.90;;;;;;;-141.97;89.87;47759.34;5031492;28;20190;-84
2023/01/04 02:37:35;;;;;;;115.90;44.13;;;;;;;-141.97;89.55;47732.44;5031926;28;20400;-84
2023/01/04 02:40:20;;;;;;;104.47;44.17;;;;;;;-141.97;89.55;47788.19;5013677;28;20476;-84
2023/01/04 02:46:27;;;;;;;103.60;41.13;;;;;;;-141.97;89.08;47765.09;4951314;29;21004;-84
2023/01/04 02:51:37;;;;;;;94.73;40.50;;;;;;;-141.97;89.10;47753.56;4951824;29;20483;-84
2023/01/04 02:54:09;;;;;;;99.13;41.17;;;;;;;-141.97;88.94;47790.09;4951734;29;20417;-84
2023/01/04 02:56:40;;;;;;;147.27;55.17;;;;;;;-141.97;89.12;47759.34;4951848;29;20430;-84
2023/01/04 02:59:44;;;;;;;146.17;58.33;;;;;;;-141.97;88.84;47757.41;4952680;29;20412;-84
2023/01/04 03:08:35;;;;;;;97.63;38.73;;;;;;;-141.97;90.43;47745.88;4913620;29;20422;-83
2023/01/04 03:12:30;;;;;;;159.23;53.63;;;;;;;-141.97;90.91;47776.63;4913136;29;20847;-83
2023/01/04 03:13:58;;;;;;;177.70;57.37;;;;;;;-141.97;90.65;47770.88;4913443;29;20477;-83
2023/01/04 03:16:25;;;;;;;215.70;71.07;;;;;;;-141.97;90.19;47742.03;4913460;29;20426;-83
2023/01/04 03:18:53;;;;;;;124.17;44.70;;;;;;;-141.97;91.11;47795.88;4913133;29;20949;-84
2023/01/04 03:21:22;;;;;;;117.33;44.17;;;;;;;-141.97;90.82;47761.25;4915366;29;20495;-83
2023/01/04 03:35:22;;;;;;;102.70;43.40;;;;;;;-141.97;95.42;47788.19;4990217;28;20438;-84
2023/01/04 03:50:41;;;;;;;104.57;40.27;;;;;;;-141.97;100.00;47784.34;4951232;29;20596;-84
2023/01/04 03:53:08;;;;;;;101.33;37.87;;;;;;;-141.97;100.00;47774.72;4951381;29;20843;-83
2023/01/04 03:55:37;;;;;;;91.33;37.27;;;;;;;-141.97;100.00;47768.94;4935166;29;20412;-84
2023/01/04 03:58:02;;;;;;;91.63;37.23;;;;;;;-141.97;100.00;47793.94;4951325;29;20488;-84
2023/01/04 04:00:28;;;;;;;99.93;38.07;;;;;;;-141.97;100.00;47786.25;4950925;29;20484;-84
2023/01/04 04:03:05;;;;;;;89.50;37.33;;;;;;;-141.97;100.00;47770.88;4950723;29;20392;-84
2023/01/04 04:08:27;;;;;;;92.43;36.67;;;;;;;-141.97;100.00;47765.09;4951145;29;20503;-83
2023/01/04 04:10:55;;;;;;;103.87;39.07;;;;;;;-141.97;100.00;47782.41;4951170;29;20420;-84
2023/01/04 04:13:20;;;;;;;112.60;42.90;;;;;;;-141.97;100.00;47742.03;4950712;29;20439;-84
2023/01/04 04:15:47;;;;;;;117.07;43.50;;;;;;;-141.97;100.00;47784.34;4971675;28;20420;-84
2023/01/04 04:18:12;;;;;;;116.73;41.77;;;;;;;-141.97;100.00;47761.25;5030961;28;20165;-84
2023/01/04 04:20:37;;;;;;;120.27;42.03;;;;;;;-141.97;100.00;47790.09;5031171;28;20444;-84
2023/01/04 04:23:03;;;;;;;115.30;42.37;;;;;;;-141.97;100.00;47690.16;5030965;28;20258;-84
2023/01/04 04:25:28;;;;;;;114.20;42.37;;;;;;;-141.97;100.00;47834.31;5013288;28;20175;-83
2023/01/04 04:27:54;;;;;;;138.27;48.57;;;;;;;-141.97;100.00;47811.25;5030692;28;20204;-84
2023/01/04 04:30:19;;;;;;;124.47;46.57;;;;;;;-141.97;100.00;47809.31;5030848;28;20273;-83
2023/01/04 04:32:45;;;;;;;113.73;42.60;;;;;;;-141.97;100.00;47724.75;5033390;28;20166;-83
2023/01/04 04:35:10;;;;;;;90.10;36.67;;;;;;;-141.97;100.00;47726.66;5035095;28;20186;-82
2023/01/04 04:37:36;;;;;;;88.93;37.30;;;;;;;-141.97;100.00;47788.19;5038539;28;20201;-82
2023/01/04 04:40:02;;;;;;;87.87;34.40;;;;;;;-141.97;100.00;47845.84;5034968;28;20258;-83
2023/01/04 04:42:28;;;;;;;88.70;36.33;;;;;;;-141.97;100.00;47732.44;5034520;28;20669;-83
2023/01/04 04:44:53;;;;;;;77.93;33.40;;;;;;;-141.97;100.00;47782.41;5034079;28;20413;-83
2023/01/04 04:47:18;;;;;;;73.07;32.07;;;;;;;-141.97;100.00;47757.41;5033931;28;20624;-84
2023/01/04 04:49:44;;;;;;;69.53;30.93;;;;;;;-141.97;100.00;47836.22;5033782;28;20228;-85
2023/01/04 04:52:09;;;;;;;67.97;30.73;;;;;;;-141.97;100.00;47803.56;5034071;28;20155;-84
2023/01/04 04:54:34;;;;;;;65.00;30.37;;;;;;;-141.97;100.00;47801.63;5034199;28;20166;-83
2023/01/04 04:57:00;;;;;;;74.07;33.50;;;;;;;-141.97;100.00;47857.38;5034484;28;20638;-83
2023/01/04 04:59:25;;;;;;;77.57;32.07;;;;;;;-141.97;100.00;47742.03;5033998;28;20221;-84
2023/01/04 05:01:51;;;;;;;64.87;30.20;;;;;;;-141.97;100.00;47830.47;5033890;28;20186;-83
2023/01/04 05:04:18;;;;;;;62.93;29.17;;;;;;;-141.97;100.00;47832.38;5033917;28;20166;-83
2023/01/04 05:06:45;;;;;;;68.03;29.10;;;;;;;-141.97;100.00;47745.88;5033682;28;20161;-85
2023/01/04 05:09:11;;;;;;;62.53;28.93;;;;;;;-141.97;100.00;47726.66;5033904;28;20408;-82
2023/01/04 05:14:20;;;;;;;71.30;30.33;;;;;;;-141.97;100.00;47780.47;5033869;28;20403;-82
2023/01/04 05:16:46;;;;;;;77.87;32.07;;;;;;;-141.97;100.00;47866.97;5033872;28;20405;-82
2023/01/04 05:19:11;;;;;;;70.63;32.37;;;;;;;-141.97;100.00;47761.25;5015968;28;20170;-85
2023/01/04 05:21:37;;;;;;;78.57;35.30;;;;;;;-141.97;100.00;47757.41;5033922;28;20251;-83
2023/01/04 05:24:02;;;;;;;88.93;36.00;;;;;;;-141.97;100.00;47757.41;5033655;28;20177;-82
2023/01/04 05:26:28;;;;;;;98.73;38.63;;;;;;;-141.97;100.00;47747.81;5020009;28;20681;-84
2023/01/04 05:28:53;;;;;;;84.37;35.07;;;;;;;-141.97;100.00;47784.34;5032402;28;20265;-83
2023/01/04 05:31:18;;;;;;;77.60;33.60;;;;;;;-141.97;100.00;47772.78;5037061;28;20185;-83
2023/01/04 05:33:44;;;;;;;82.03;33.93;;;;;;;-141.97;100.00;47767.03;5026614;28;20257;-83
2023/01/04 05:36:09;;;;;;;78.17;31.90;;;;;;;-141.97;100.00;47788.19;5012304;28;20174;-83
2023/01/04 05:38:35;;;;;;;78.40;33.83;;;;;;;-141.97;100.00;47801.63;5012496;28;20305;-84
2023/01/04 05:41:00;;;;;;;85.03;38.30;;;;;;;-141.97;100.00;47834.31;5025258;28;20232;-84
2023/01/04 05:43:26;;;;;;;81.33;32.63;;;;;;;-141.97;100.00;47799.72;5037535;28;20214;-83
2023/01/04 05:45:53;;;;;;;80.50;31.93;;;;;;;-141.97;100.00;47830.47;5013532;28;20638;-84
2023/01/04 05:48:20;;;;;;;91.33;37.27;;;;;;;-141.97;100.00;47793.94;5014184;28;20320;-84
2023/01/04 05:50:45;;;;;;;99.57;41.13;;;;;;;-141.97;100.00;47786.25;5019413;28;20441;-84
2023/01/04 05:53:13;;;;;;;102.23;40.87;;;;;;;-141.97;100.00;47803.56;5018520;28;20438;-84
2023/01/04 05:55:38;;;;;;;142.23;54.43;;;;;;;-141.97;100.00;47797.78;5018641;28;20194;-84
2023/01/04 05:58:04;;;;;;;106.47;43.23;;;;;;;-141.97;100.00;47784.34;5018012;28;20429;-84
2023/01/04 06:00:30;;;;;;;228.17;91.80;;;;;;;-141.97;100.00;47815.09;5013833;28;20682;-84
2023/01/04 06:02:55;;;;;;;199.07;82.93;;;;;;;-141.97;100.00;47765.09;5012567;28;20441;-82
2023/01/04 06:05:23;;;;;;;186.93;76.47;;;;;;;-141.97;100.00;47851.59;5020540;28;20185;-83
2023/01/04 06:07:49;;;;;;;286.97;111.97;;;;;;;-141.97;100.00;47790.09;5018326;28;20189;-83
2023/01/04 06:10:14;;;;;;;362.17;145.37;;;;;;;-141.97;100.00;47813.16;5034622;28;20527;-82
2023/01/04 06:12:40;;;;;;;294.80;123.13;;;;;;;-141.97;100.00;47786.25;5038417;28;20550;-83
2023/01/04 06:15:08;;;;;;;270.30;111.10;;;;;;;-141.97;100.00;47807.41;5012479;28;20183;-83
2023/01/04 06:17:34;;;;;;;265.70;108.40;;;;;;;-141.97;100.00;47807.41;5011705;28;20444;-83
2023/01/04 06:20:00;;;;;;;181.33;76.43;;;;;;;-141.97;100.00;47786.25;5014171;28;20434;-84
2023/01/04 06:22:27;;;;;;;289.07;118.30;;;;;;;-141.97;100.00;47803.56;5017090;28;20430;-85
2023/01/04 06:24:52;;;;;;;277.40;112.50;;;;;;;-141.97;100.00;47807.41;5021974;28;20263;-82
2023/01/04 06:27:17;;;;;;;383.57;152.10;;;;;;;-141.97;100.00;47778.56;5056806;28;20959;-83
2023/01/04 06:29:43;;;;;;;417.63;169.63;;;;;;;-141.97;100.00;47768.94;5039696;28;20636;-84
2023/01/04 06:32:08;;;;;;;248.40;95.23;;;;;;;-141.97;100.00;47834.31;5033206;28;20220;-84
2023/01/04 06:34:34;;;;;;;198.80;84.83;;;;;;;-141.97;100.00;47795.88;5016477;28;20189;-83
2023/01/04 06:36:59;;;;;;;278.80;108.53;;;;;;;-141.97;100.00;47786.25;5031645;28;20212;-83
2023/01/04 06:39:25;;;;;;;350.40;139.10;;;;;;;-141.97;100.00;47801.63;5030883;28;20607;-83
2023/01/04 06:41:50;;;;;;;307.93;127.97;;;;;;;-141.97;97.16;47742.03;5031120;28;20267;-83
2023/01/04 06:44:16;;;;;;;137.17;59.37;;;;;;;-141.97;93.16;47765.09;5031495;28;20182;-84
2023/01/04 06:46:41;;;;;;;128.17;54.40;;;;;;;-141.97;90.96;47765.09;5030857;28;20190;-83
2023/01/04 06:49:06;;;;;;;118.77;48.80;;;;;;;-141.97;90.20;47788.19;5030138;28;20193;-83
2023/01/04 06:51:32;;;;;;;128.10;54.93;;;;;;;-141.97;89.49;47818.94;5030731;28;20196;-83
2023/01/04 06:53:57;;;;;;;160.23;68.60;;;;;;;-141.97;89.30;47807.41;5030197;28;20269;-83
2023/01/04 06:56:22;;;;;;;124.97;49.50;;;;;;;-141.97;88.38;47820.84;5030736;28;20182;-83
2023/01/04 06:58:48;;;;;;;118.27;48.60;;;;;;;-141.97;87.89;47815.09;5030731;28;20193;-83
2023/01/04 07:01:13;;;;;;;104.97;43.00;;;;;;;-141.97;87.94;47768.94;5031549;28;20209;-83
2023/01/04 07:03:39;;;;;;;106.37;42.30;;;;;;;-141.97;88.05;47765.09;5018355;28;20197;-83
2023/01/04 07:06:05;;;;;;;126.90;54.10;;;;;;;-141.97;88.52;47795.88;5014122;28;20178;-83
2023/01/04 07:08:32;;;;;;;109.53;47.67;;;;;;;-141.97;85.35;47797.78;5000081;28;20359;-84
2023/01/04 07:10:58;;;;;;;121.00;47.37;;;;;;;-141.97;71.02;47811.25;5010392;28;20575;-82
2023/01/04 07:13:23;;;;;;;170.23;90.03;;;;;;;-141.97;64.40;47818.94;5010971;28;20966;-84
2023/01/04 07:15:48;;;;;;;123.50;59.07;;;;;;;-141.97;61.48;47890.06;5025649;28;20187;-83
2023/01/04 07:18:14;;;;;;;111.90;52.33;;;;;;;-141.97;58.70;47780.47;5008428;28;20182;-83
2023/01/04 07:20:39;;;;;;;112.73;55.33;;;;;;;-141.97;57.87;47793.94;5010235;28;20354;-83
2023/01/04 07:23:06;;;;;;;117.00;58.57;;;;;;;-141.97;57.01;47780.47;5009893;28;20578;-83
2023/01/04 07:25:32;;;;;;;119.97;57.13;;;;;;;-141.97;55.64;47859.28;5025308;28;20190;-84
2023/01/04 07:27:57;;;;;;;96.67;47.87;;;;;;;-141.97;54.53;47795.88;5010261;28;20205;-84
2023/01/04 07:30:23;;;;;;;111.87;51.40;;;;;;;-141.97;55.32;47763.19;5008438;28;20194;-84
2023/01/04 07:32:50;;;;;;;90.10;43.77;;;;;;;-141.97;57.38;47780.47;5008674;28;20213;-83
2023/01/04 07:35:16;;;;;;;79.17;38.37;;;;;;;-141.97;60.35;47768.94;5010980;28;20193;-84
2023/01/04 07:37:42;;;;;;;82.57;38.43;;;;;;;-141.97;62.60;47755.50;5008255;28;20266;-84
2023/01/04 07:40:08;;;;;;;65.67;34.43;;;;;;;-141.97;65.20;47842.00;5008577;28;20601;-83
2023/01/04 07:42:34;;;;;;;55.20;30.80;;;;;;;-141.97;66.93;47786.25;5010329;28;20240;-83
2023/01/04 07:44:59;;;;;;;73.93;36.00;;;;;;;-141.97;69.10;47669.00;5010072;28;20569;-85
2023/01/04 07:47:26;;;;;;;61.33;30.27;;;;;;;-141.97;69.90;47842.00;5009803;28;20239;-84
2023/01/04 07:49:52;;;;;;;68.10;30.83;;;;;;;-141.97;70.29;47653.63;5010115;28;20255;-84
2023/01/04 07:52:17;;;;;;;95.90;48.47;;;;;;;-141.97;70.12;47742.03;5001717;28;20487;-86
2023/01/04 07:54:42;;;;;;;72.70;38.00;;;;;;;-141.97;70.07;47757.41;5019838;28;20198;-83
2023/01/04 07:57:08;;;;;;;69.27;34.03;;;;;;;-141.97;69.39;47768.94;5009046;28;20185;-84
2023/01/04 07:59:33;;;;;;;61.60;30.00;;;;;;;-141.97;69.61;47853.53;5008628;28;20187;-84
2023/01/04 08:01:59;;;;;;;70.10;35.90;;;;;;;-141.97;70.34;47778.56;5021132;28;20264;-83
2023/01/04 08:04:24;;;;;;;114.00;50.30;;;;;;;-141.97;71.13;47757.41;5009329;28;20624;-84
2023/01/04 08:06:50;;;;;;;66.97;34.97;;;;;;;-141.97;71.37;47776.63;5009834;28;20187;-86
2023/01/04 08:09:16;;;;;;;64.33;35.73;;;;;;;-141.97;71.75;47770.88;4999854;28;20253;-84
2023/01/04 08:11:43;;;;;;;82.17;44.50;;;;;;;-141.97;72.22;47807.41;5011591;28;20220;-83
2023/01/04 08:14:09;;;;;;;77.40;38.07;;;;;;;-141.97;72.39;47765.09;5030111;28;20190;-83
2023/01/04 08:16:37;;;;;;;79.30;39.00;;;;;;;-141.97;73.03;47738.19;5014725;28;20289;-85
2023/01/04 08:19:19;;;;;;;58.37;28.53;;;;;;;-141.97;71.80;47759.34;5032202;28;20260;-86
2023/01/04 08:21:45;;;;;;;59.80;30.13;;;;;;;-141.97;72.99;47768.94;5018022;28;20209;-84
2023/01/04 08:24:14;;;;;;;60.87;30.53;;;;;;;-141.97;72.13;47784.34;5014252;28;20201;-85
2023/01/04 08:26:39;;;;;;;62.10;31.33;;;;;;;-141.97;71.09;47782.41;5031725;28;20178;-84
2023/01/04 08:29:05;;;;;;;56.00;29.30;;;;;;;-141.97;69.92;47730.50;5013189;28;20646;-85
2023/01/04 08:31:32;;;;;;;55.77;30.00;;;;;;;-141.97;68.63;47805.47;5014531;28;20217;-84
2023/01/04 08:34:01;;;;;;;63.50;31.30;;;;;;;-141.97;68.00;47803.56;5014038;28;20236;-84
2023/01/04 08:36:29;;;;;;;81.63;40.40;;;;;;;-141.97;67.29;47730.50;5013694;28;20186;-86
2023/01/04 08:38:58;;;;;;;277.30;126.93;;;;;;;-141.97;66.74;47786.25;5031325;28;20233;-86
2023/01/04 08:41:23;;;;;;;300.23;135.70;;;;;;;-141.97;66.13;47807.41;5014176;28;20228;-85
2023/01/04 08:43:48;;;;;;;139.93;63.83;;;;;;;-141.97;66.00;47747.81;5016395;28;20662;-86
2023/01/04 08:46:14;;;;;;;138.57;69.30;;;;;;;-141.97;65.97;47707.44;5011754;28;21122;-85
2023/01/04 08:48:40;;;;;;;124.30;61.70;;;;;;;-141.97;65.61;47878.53;5013809;28;20178;-85
2023/01/04 08:51:13;;;;;;;123.57;59.63;;;;;;;-141.97;65.05;47761.25;5011433;28;20233;-85
2023/01/04 08:53:39;;;;;;;134.20;64.10;;;;;;;-141.97;64.40;47772.78;5024501;28;20185;-85
2023/01/04 08:56:06;;;;;;;108.80;58.80;;;;;;;-141.97;63.08;47778.56;5031762;28;20661;-85
2023/01/04 08:58:33;;;;;;;83.87;45.90;;;;;;;-141.97;62.96;47768.94;5030757;28;20571;-83
2023/01/04 09:01:04;;;;;;;99.53;52.70;;;;;;;-141.97;62.61;47765.09;5031685;28;20714;-85
2023/01/04 09:03:30;;;;;;;90.00;45.63;;;;;;;-141.97;62.37;47813.16;5012936;28;20260;-83
2023/01/04 09:06:08;;;;;;;98.00;53.87;;;;;;;-141.97;61.75;47765.09;5012703;28;20623;-84
2023/01/04 09:08:35;;;;;;;103.50;53.10;;;;;;;-141.97;61.49;47772.78;5011966;28;20182;-83
2023/01/04 09:11:12;;;;;;;80.97;41.43;;;;;;;-141.97;61.02;47772.78;5001712;28;20599;-83
2023/01/04 09:13:38;;;;;;;75.53;39.23;;;;;;;-141.97;61.04;47832.38;5011268;28;20199;-83
2023/01/04 09:16:07;;;;;;;69.73;36.70;;;;;;;-141.97;60.67;47751.66;5012284;28;20175;-84
2023/01/04 09:18:33;;;;;;;79.53;40.53;;;;;;;-141.97;59.95;47761.25;5011664;28;20186;-83
2023/01/04 09:21:03;;;;;;;83.90;42.23;;;;;;;-141.97;59.04;47713.22;5019466;28;20202;-83
2023/01/04 09:23:29;;;;;;;89.93;44.90;;;;;;;-141.97;58.87;47711.28;5021996;28;20174;-83
2023/01/04 09:25:55;;;;;;;106.60;53.00;;;;;;;-141.97;58.52;47726.66;5018458;28;20174;-86
2023/01/04 09:28:20;;;;;;;50.87;25.73;;;;;;;-141.97;59.44;47738.19;5045282;28;20642;-84
2023/01/04 09:30:45;;;;;;;42.53;24.03;;;;;;;-141.97;60.75;47713.22;5033008;28;20202;-84
2023/01/04 09:33:11;;;;;;;42.73;23.10;;;;;;;-141.97;61.28;47761.25;5032840;28;20184;-84
2023/01/04 09:35:36;;;;;;;40.17;23.33;;;;;;;-141.97;60.79;47734.34;5032443;28;20178;-84
2023/01/04 09:38:02;;;;;;;34.03;18.57;;;;;;;-141.97;60.49;47765.09;5013969;28;20261;-85
2023/01/04 09:40:39;;;;;;;48.63;26.13;;;;;;;-141.97;59.63;47755.50;5032148;28;20209;-84
2023/01/04 09:43:14;;;;;;;30.80;16.20;;;;;;;-141.97;59.63;47776.63;5032216;28;20182;-83
2023/01/04 09:45:40;;;;;;;34.47;18.70;;;;;;;-141.97;60.63;47705.53;5033126;28;20184;-83
2023/01/04 09:48:13;;;;;;;35.77;18.13;;;;;;;-141.97;60.81;47765.09;5032605;28;20192;-88
2023/01/04 09:50:52;;;;;;;32.30;17.67;;;;;;;-141.97;60.90;47730.50;5031568;28;20186;-84
2023/01/04 09:53:21;;;;;;;25.27;14.00;;;;;;;-141.97;60.64;47778.56;5032085;28;20190;-84
2023/01/04 09:55:49;;;;;;;26.93;16.77;;;;;;;-141.97;60.25;47740.13;5030752;28;20193;-84
2023/01/04 09:58:27;;;;;;;45.97;25.20;;;;;;;-141.97;59.79;47753.56;5031273;28;20193;-85
2023/01/04 10:01:13;;;;;;;38.03;20.17;;;;;;;-141.97;59.22;47761.25;5032425;28;20216;-85
2023/01/04 10:04:01;;;;;;;26.00;16.53;;;;;;;-141.97;58.89;47859.28;5012721;28;20196;-85
2023/01/04 10:06:27;;;;;;;31.23;18.17;;;;;;;-141.97;57.55;47622.88;4897840;29;20194;-84
2023/01/04 10:09:00;;;;;;;22.50;11.20;;;;;;;-141.97;57.43;47718.97;4925214;29;20249;-84
2023/01/04 10:11:43;;;;;;;24.83;14.13;;;;;;;-141.97;58.30;47761.25;4921867;29;20229;-85
2023/01/04 10:14:25;;;;;;;30.97;18.27;;;;;;;-141.97;58.04;47780.47;4915921;29;20197;-85
2023/01/04 10:17:09;;;;;;;22.57;13.13;;;;;;;-141.97;58.12;47728.59;4916032;29;20765;-85
2023/01/04 10:19:59;;;;;;;27.67;14.53;;;;;;;-141.97;57.20;47732.44;4931759;29;20193;-85
2023/01/04 10:22:35;;;;;;;23.60;14.03;;;;;;;-141.97;57.20;47743.97;4915927;29;20699;-86
2023/01/04 10:25:04;;;;;;;35.87;17.83;;;;;;;-141.97;55.93;47742.03;4931999;29;20189;-79
2023/01/04 10:27:53;;;;;;;30.70;17.20;;;;;;;-141.97;55.60;47742.03;4930278;29;20181;-83
2023/01/04 10:30:27;;;;;;;28.30;17.60;;;;;;;-141.97;54.90;47745.88;4930376;29;20432;-83
2023/01/04 10:33:13;;;;;;;27.93;15.83;;;;;;;-141.97;54.39;47770.88;4930042;29;20182;-82
2023/01/04 10:35:42;;;;;;;31.07;17.57;;;;;;;-141.97;55.60;47749.72;4927069;29;20197;-82
2023/01/04 10:38:41;;;;;;;45.20;23.37;;;;;;;-141.97;55.14;47740.13;4925979;29;20221;-81
2023/01/04 10:41:12;;;;;;;27.60;16.67;;;;;;;-141.97;55.15;47761.25;4873620;29;20238;-81
2023/01/04 10:43:50;;;;;;;18.87;11.83;;;;;;;-141.97;55.41;47734.34;4912510;28;20215;-80
2023/01/04 10:46:34;;;;;;;31.67;17.77;;;;;;;-141.97;55.35;47720.91;4968954;28;20195;-81
2023/01/04 10:49:10;;;;;;;29.47;17.57;;;;;;;-141.97;54.78;47736.28;4959691;28;20196;-81
2023/01/04 10:51:44;;;;;;;31.27;18.57;;;;;;;-141.97;54.04;47692.06;4950326;29;20335;-81
2023/01/04 10:54:21;;;;;;;22.27;13.90;;;;;;;-141.97;54.71;47715.13;4949958;29;20332;-82
2023/01/04 10:56:46;;;;;;;36.20;19.63;;;;;;;-141.97;54.62;47734.34;4948966;29;20184;-82
2023/01/04 10:59:14;;;;;;;24.23;14.67;;;;;;;-141.97;54.25;47738.19;4949602;29;20639;-83
2023/01/04 11:02:26;;;;;;;27.77;16.43;;;;;;;-141.97;53.32;47726.66;4948889;29;20216;-81
2023/01/04 11:05:01;;;;;;;23.73;14.07;;;;;;;-141.97;53.53;47738.19;4873388;29;20206;-83
2023/01/04 11:07:44;;;;;;;25.87;15.97;;;;;;;-141.97;53.56;47688.22;4859354;29;20225;-82
2023/01/04 11:10:26;;;;;;;29.10;18.83;;;;;;;-141.97;53.29;47738.19;4843932;29;20247;-81
2023/01/04 11:12:52;;;;;;;35.03;20.10;;;;;;;-141.97;52.80;47726.66;4854562;29;20188;-81
2023/01/04 11:15:18;;;;;;;21.27;13.50;;;;;;;-141.97;52.77;47720.91;4854989;29;20307;-82
2023/01/04 11:17:44;;;;;;;23.60;13.77;;;;;;;-141.97;53.22;47751.66;4861991;29;20191;-81
2023/01/04 11:20:10;;;;;;;30.67;15.50;;;;;;;-141.97;53.52;47717.06;4872740;29;20186;-81
2023/01/04 11:22:46;;;;;;;38.07;21.30;;;;;;;-141.97;53.33;47740.13;4873607;29;20266;-82
2023/01/04 11:25:17;;;;;;;36.27;20.50;;;;;;;-141.97;52.69;47726.66;4873921;29;20268;-82
2023/01/04 11:28:08;;;;;;;21.30;14.07;;;;;;;-141.97;53.71;47743.97;4872584;29;20217;-81
2023/01/04 11:30:47;;;;;;;25.80;16.33;;;;;;;-141.97;53.63;47707.44;4836390;29;20256;-81
2023/01/04 11:33:19;;;;;;;32.97;18.93;;;;;;;-141.97;52.86;47724.75;4836360;29;20682;-82
2023/01/04 11:35:49;;;;;;;23.67;13.23;;;;;;;-141.97;53.74;47707.44;4835985;29;20205;-81
2023/01/04 11:38:22;;;;;;;55.17;29.43;;;;;;;-141.97;54.00;47740.13;4835794;29;20422;-82
2023/01/04 11:40:58;;;;;;;32.53;20.07;;;;;;;-141.97;53.16;47742.03;4847990;29;20215;-82
2023/01/04 11:43:26;;;;;;;29.10;18.13;;;;;;;-141.97;52.74;47724.75;4914488;29;20666;-82
2023/01/04 11:45:57;;;;;;;42.93;22.93;;;;;;;-141.97;52.10;47726.66;4914540;29;20189;-82
2023/01/04 11:48:33;;;;;;;21.67;13.63;;;;;;;-141.97;53.36;47695.91;4898230;29;20209;-82